Time;durP1;ratioP1;P1;durP2;ratioP2;P2;SDS_P1;SDS_P2;PMS_P1;PMS_P2;Temp;Humidity;BMP_temperature;BMP_pressure;BME280_temperature;BME280_humidity;BME280_pressure;Samples;Min_cycle;Max_cycle;Signal;HPM_P1;HPM_P2
2023/12/22 00:02:16;;;;;;;15.17;3.50;;;;;;;5.54;100.00;99820.88;5061629;28;20184;-69
2023/12/22 00:04:42;;;;;;;25.80;4.03;;;;;;;5.68;100.00;99824.47;5057602;28;20766;-69
2023/12/22 00:07:07;;;;;;;24.90;5.23;;;;;;;5.05;100.00;99704.66;5047487;28;20674;-69
2023/12/22 00:09:33;;;;;;;20.63;3.97;;;;;;;5.78;100.00;99794.88;5050933;28;20219;-69
2023/12/22 00:11:58;;;;;;;24.97;4.67;;;;;;;5.84;100.00;99794.09;5047380;28;20544;-69
2023/12/22 00:14:24;;;;;;;23.17;3.70;;;;;;;5.89;100.00;99759.75;5045438;28;20183;-69
2023/12/22 00:16:49;;;;;;;29.97;4.77;;;;;;;6.02;100.00;99807.78;5046512;28;20200;-69
2023/12/22 00:19:14;;;;;;;16.20;2.90;;;;;;;5.71;100.00;99825.94;5047912;28;20183;-68
2023/12/22 00:21:40;;;;;;;16.30;2.53;;;;;;;4.99;100.00;99775.34;5045065;28;20195;-69
2023/12/22 00:24:05;;;;;;;11.03;1.90;;;;;;;4.54;100.00;99768.47;5049595;28;20175;-69
2023/12/22 00:26:31;;;;;;;10.07;1.70;;;;;;;4.76;100.00;99838.44;5049067;28;20222;-68
2023/12/22 00:28:56;;;;;;;9.40;1.43;;;;;;;4.88;100.00;99836.13;5051890;28;20177;-69
2023/12/22 00:31:21;;;;;;;9.03;1.50;;;;;;;4.90;100.00;99832.28;5052975;28;20551;-69
2023/12/22 00:33:47;;;;;;;10.87;1.83;;;;;;;4.64;100.00;99811.53;5051433;28;20171;-69
2023/12/22 00:36:12;;;;;;;13.80;3.53;;;;;;;4.23;100.00;99772.19;5051628;28;20195;-68
2023/12/22 00:38:38;;;;;;;13.57;2.93;;;;;;;4.98;100.00;99885.31;5068838;28;20183;-69
2023/12/22 00:41:03;;;;;;;14.47;2.90;;;;;;;5.10;100.00;99896.31;5050621;28;20187;-69
2023/12/22 00:43:29;;;;;;;21.23;3.47;;;;;;;5.07;100.00;99863.97;5049148;28;20562;-68
2023/12/22 00:45:55;;;;;;;20.17;2.87;;;;;;;5.12;100.00;99869.53;5050148;28;20207;-69
2023/12/22 00:48:21;;;;;;;21.33;3.80;;;;;;;5.35;100.00;99898.63;5050201;28;20187;-69
2023/12/22 00:50:47;;;;;;;20.77;3.53;;;;;;;4.67;100.00;99813.00;5056429;28;20926;-69
2023/12/22 00:53:12;;;;;;;21.17;3.00;;;;;;;5.33;100.00;99888.19;5048437;28;20709;-68
2023/12/22 00:55:38;;;;;;;17.10;3.13;;;;;;;5.26;100.00;99870.50;5042683;28;20429;-69
2023/12/22 00:58:04;;;;;;;21.70;3.57;;;;;;;5.26;100.00;99902.41;5050451;28;20179;-69
2023/12/22 01:00:29;;;;;;;12.13;2.53;;;;;;;5.07;100.00;99890.53;5047508;28;20935;-68
2023/12/22 01:02:55;;;;;;;17.30;2.70;;;;;;;4.96;100.00;99875.88;5054414;28;20559;-69
2023/12/22 01:05:20;;;;;;;21.10;2.47;;;;;;;5.01;100.00;99859.41;5049575;28;20179;-69
2023/12/22 01:07:45;;;;;;;13.00;2.60;;;;;;;5.19;100.00;99876.56;5046685;28;20212;-69
2023/12/22 01:10:11;;;;;;;18.53;4.13;;;;;;;5.38;100.00;99861.00;5049097;28;20187;-69
2023/12/22 01:12:36;;;;;;;16.33;3.37;;;;;;;5.39;100.00;99873.31;5050965;28;20191;-69
2023/12/22 01:15:02;;;;;;;20.60;3.97;;;;;;;5.48;100.00;99847.41;5048493;28;20190;-69
2023/12/22 01:17:28;;;;;;;26.20;4.37;;;;;;;5.55;100.00;99848.28;5051844;28;20213;-69
2023/12/22 01:19:53;;;;;;;28.87;4.87;;;;;;;5.54;100.00;99809.41;5051281;28;20645;-69
2023/12/22 01:22:18;;;;;;;22.27;3.47;;;;;;;5.63;100.00;99800.28;5049615;28;20183;-69
2023/12/22 01:24:45;;;;;;;32.77;4.60;;;;;;;5.53;100.00;99751.91;5057239;28;20192;-69
2023/12/22 01:27:11;;;;;;;29.17;4.93;;;;;;;5.93;100.00;99798.31;5052178;28;20210;-69
2023/12/22 01:29:37;;;;;;;23.77;4.83;;;;;;;5.95;100.00;99806.91;5048029;28;20433;-69
2023/12/22 01:32:02;;;;;;;23.80;5.10;;;;;;;5.97;100.00;99804.88;5041598;28;20427;-69
2023/12/22 01:34:28;;;;;;;17.67;3.20;;;;;;;5.14;100.00;99769.97;5043370;28;20215;-68
2023/12/22 01:36:53;;;;;;;17.23;3.80;;;;;;;5.41;100.00;99872.13;5052599;28;20744;-69
2023/12/22 01:39:19;;;;;;;23.10;4.00;;;;;;;4.91;100.00;99825.94;5045554;28;20173;-69
2023/12/22 01:41:45;;;;;;;21.67;4.07;;;;;;;5.35;100.00;99909.25;5046360;28;20695;-69
2023/12/22 01:44:10;;;;;;;25.17;4.60;;;;;;;5.35;100.00;99917.22;5045712;28;20254;-68
2023/12/22 01:46:36;;;;;;;18.90;4.43;;;;;;;5.41;100.00;99927.97;5050876;28;20217;-69
2023/12/22 01:49:02;;;;;;;33.20;5.50;;;;;;;4.69;100.00;99837.53;5050582;28;20175;-69
2023/12/22 01:51:29;;;;;;;28.57;5.57;;;;;;;5.16;100.00;99905.38;5050564;28;20215;-69
2023/12/22 01:53:55;;;;;;;28.13;6.00;;;;;;;5.38;100.00;99928.34;5039797;28;20190;-69
2023/12/22 01:56:20;;;;;;;29.90;5.10;;;;;;;5.19;100.00;99900.50;5047738;28;20516;-69
2023/12/22 01:58:46;;;;;;;29.40;5.20;;;;;;;5.54;100.00;99956.53;5040773;28;20606;-69
2023/12/22 02:01:13;;;;;;;35.50;5.83;;;;;;;5.33;100.00;99916.63;5047666;28;20263;-69
2023/12/22 02:03:39;;;;;;;31.53;6.30;;;;;;;5.34;100.00;99927.03;5049502;28;20942;-69
2023/12/22 02:06:05;;;;;;;34.17;5.60;;;;;;;5.44;100.00;99921.44;5049240;28;20465;-69
2023/12/22 02:08:34;;;;;;;35.17;5.70;;;;;;;5.01;100.00;99812.38;5049680;28;20437;-69
2023/12/22 02:11:00;;;;;;;30.33;5.60;;;;;;;5.76;100.00;99879.41;5047169;28;20430;-69
2023/12/22 02:13:26;;;;;;;24.17;4.27;;;;;;;5.97;100.00;99874.09;5043267;28;20419;-69
2023/12/22 02:16:00;;;;;;;30.13;5.40;;;;;;;5.94;100.00;99849.69;5063298;28;20222;-69
2023/12/22 02:18:35;;;;;;;35.33;5.80;;;;;;;6.02;100.00;99807.78;5047566;28;20940;-69
2023/12/22 02:21:00;;;;;;;16.80;3.40;;;;;;;5.69;100.00;99722.34;5042928;28;20519;-69
2023/12/22 02:23:26;;;;;;;21.70;3.80;;;;;;;5.50;100.00;99646.75;5039949;28;20816;-69
2023/12/22 02:26:03;;;;;;;17.97;4.50;;;;;;;5.93;100.00;99712.25;5044449;28;20204;-69
2023/12/22 02:28:30;;;;;;;20.20;3.80;;;;;;;5.70;100.00;99665.47;5052764;28;20186;-68
2023/12/22 02:31:12;;;;;;;23.00;3.60;;;;;;;6.02;100.00;99724.44;5053690;28;20430;-69
2023/12/22 02:33:41;;;;;;;19.43;4.43;;;;;;;6.04;100.00;99722.41;5042809;28;20437;-69
2023/12/22 02:36:09;;;;;;;20.03;3.80;;;;;;;5.87;100.00;99679.28;5044994;28;20441;-69
2023/12/22 02:38:35;;;;;;;23.80;3.93;;;;;;;6.05;100.00;99700.09;5049414;28;20425;-69
2023/12/22 02:41:02;;;;;;;21.17;4.20;;;;;;;6.00;100.00;99729.97;5052489;28;20422;-68
2023/12/22 02:43:28;;;;;;;26.07;7.00;;;;;;;6.02;100.00;99711.97;5052298;28;20410;-69
2023/12/22 02:45:54;;;;;;;25.27;5.17;;;;;;;5.86;100.00;99750.31;5045927;28;20481;-69
2023/12/22 02:48:19;;;;;;;28.00;5.17;;;;;;;5.29;100.00;99727.34;5061856;28;20478;-69
2023/12/22 02:50:44;;;;;;;32.10;5.60;;;;;;;5.19;100.00;99775.53;5067849;28;20180;-69
2023/12/22 02:53:10;;;;;;;29.77;5.97;;;;;;;5.44;100.00;99849.66;5047898;28;20179;-69
2023/12/22 02:55:35;;;;;;;26.80;5.87;;;;;;;4.96;100.00;99790.84;5048594;28;20258;-69
2023/12/22 02:58:00;;;;;;;28.63;6.50;;;;;;;5.50;100.00;99880.78;5051812;28;20172;-69
2023/12/22 03:00:26;;;;;;;28.50;4.80;;;;;;;5.65;100.00;99888.72;5049439;28;20206;-69
2023/12/22 03:02:51;;;;;;;19.90;3.50;;;;;;;5.47;100.00;99843.09;5045494;28;20184;-69
2023/12/22 03:05:17;;;;;;;30.53;4.40;;;;;;;5.56;100.00;99818.03;5047967;28;20256;-69
2023/12/22 03:07:42;;;;;;;22.57;4.60;;;;;;;5.46;100.00;99789.09;5047508;28;20204;-69
2023/12/22 03:10:08;;;;;;;18.00;3.87;;;;;;;5.77;100.00;99825.97;5047336;28;20310;-69
2023/12/22 03:12:33;;;;;;;26.70;3.93;;;;;;;5.52;100.00;99774.19;5051503;28;20596;-69
2023/12/22 03:14:59;;;;;;;22.23;4.73;;;;;;;5.83;100.00;99837.69;5045110;28;20179;-69
2023/12/22 03:17:24;;;;;;;26.73;5.50;;;;;;;5.10;100.00;99681.00;5045608;28;20211;-69
2023/12/22 03:19:49;;;;;;;28.67;4.60;;;;;;;5.73;100.00;99791.97;5048752;28;20258;-69
2023/12/22 03:22:15;;;;;;;25.20;4.97;;;;;;;5.92;100.00;99823.22;5058664;28;20185;-69
2023/12/22 03:24:40;;;;;;;29.73;5.30;;;;;;;5.46;100.00;99764.31;5049505;28;20207;-68
2023/12/22 03:27:06;;;;;;;23.87;4.43;;;;;;;5.85;100.00;99812.53;5041400;28;20265;-69
2023/12/22 03:29:31;;;;;;;26.57;5.10;;;;;;;5.49;100.00;99764.75;5050039;28;20201;-69
2023/12/22 03:31:57;;;;;;;28.80;5.40;;;;;;;5.58;100.00;99763.63;5042578;28;20182;-69
2023/12/22 03:34:22;;;;;;;29.00;5.20;;;;;;;5.95;100.00;99816.72;5048498;28;20184;-69
2023/12/22 03:36:48;;;;;;;22.40;5.30;;;;;;;5.82;100.00;99786.31;5051327;28;20199;-69
2023/12/22 03:39:17;;;;;;;31.53;6.10;;;;;;;5.41;100.00;99807.47;5050162;28;20187;-69
2023/12/22 03:41:43;;;;;;;33.03;5.77;;;;;;;5.53;100.00;99891.06;5040588;28;20470;-69
2023/12/22 03:44:08;;;;;;;29.43;6.17;;;;;;;5.29;100.00;99886.88;5044879;28;20441;-69
2023/12/22 03:46:33;;;;;;;21.13;3.63;;;;;;;5.16;100.00;99870.81;5047383;28;20211;-69
2023/12/22 03:48:59;;;;;;;24.17;3.57;;;;;;;5.36;100.00;99902.94;5042001;28;20590;-69
2023/12/22 03:51:24;;;;;;;15.57;3.40;;;;;;;5.34;100.00;99891.66;5054981;28;20179;-69
2023/12/22 03:53:50;;;;;;;20.53;3.30;;;;;;;5.24;100.00;99889.31;5052404;28;20183;-69
2023/12/22 03:56:15;;;;;;;16.70;3.77;;;;;;;5.31;100.00;99897.34;5051755;28;20195;-69
2023/12/22 03:58:41;;;;;;;15.63;3.13;;;;;;;5.31;100.00;99890.19;5052454;28;20250;-69
2023/12/22 04:01:07;;;;;;;23.40;4.47;;;;;;;5.57;100.00;99915.44;5047392;28;20712;-69
2023/12/22 04:03:33;;;;;;;21.23;4.43;;;;;;;5.56;100.00;99903.97;5062199;28;20191;-69
2023/12/22 04:06:02;;;;;;;23.03;5.07;;;;;;;5.47;100.00;99875.84;5048442;28;20442;-69
2023/12/22 04:08:28;;;;;;;33.73;5.07;;;;;;;5.74;100.00;99897.41;5048265;28;21105;-69
2023/12/22 04:10:53;;;;;;;25.47;4.43;;;;;;;5.49;100.00;99846.41;5044752;28;20427;-69
2023/12/22 04:13:18;;;;;;;18.60;3.07;;;;;;;5.64;100.00;99879.91;5050379;28;20176;-69
2023/12/22 04:15:44;;;;;;;14.10;2.97;;;;;;;5.20;100.00;99808.25;5044525;28;20192;-69
2023/12/22 04:18:09;;;;;;;22.93;4.13;;;;;;;5.61;100.00;99858.16;5052783;28;20719;-69
2023/12/22 04:20:35;;;;;;;16.73;3.80;;;;;;;5.32;100.00;99795.28;5048743;28;20189;-69
2023/12/22 04:23:00;;;;;;;23.33;3.67;;;;;;;5.55;100.00;99825.16;5053597;28;20262;-69
2023/12/22 04:25:26;;;;;;;21.27;3.60;;;;;;;5.48;100.00;99834.13;5050655;28;20184;-69
2023/12/22 04:27:52;;;;;;;19.03;3.80;;;;;;;5.66;100.00;99840.63;5048888;28;20199;-69
2023/12/22 04:30:17;;;;;;;24.83;3.80;;;;;;;5.73;100.00;99869.97;5046140;28;20225;-69
2023/12/22 04:32:43;;;;;;;19.43;3.53;;;;;;;5.76;100.00;99852.81;5051296;28;20430;-69
2023/12/22 04:35:08;;;;;;;17.93;3.23;;;;;;;5.62;100.00;99780.03;5043043;28;20654;-69
2023/12/22 04:37:34;;;;;;;14.00;3.60;;;;;;;5.84;100.00;99805.59;5043998;28;20200;-69
2023/12/22 04:39:59;;;;;;;22.70;4.00;;;;;;;5.87;100.00;99786.56;5048821;28;20200;-69
2023/12/22 04:42:25;;;;;;;22.57;4.47;;;;;;;5.93;100.00;99777.03;5051024;28;20175;-69
2023/12/22 04:44:51;;;;;;;25.97;4.63;;;;;;;5.81;100.00;99768.69;5046705;28;20258;-69
2023/12/22 04:47:17;;;;;;;19.70;3.97;;;;;;;5.77;100.00;99754.13;5041146;28;20208;-69
2023/12/22 04:49:42;;;;;;;20.33;4.40;;;;;;;5.11;100.00;99641.94;5046949;28;20442;-69
2023/12/22 04:52:08;;;;;;;20.83;5.20;;;;;;;5.78;100.00;99731.00;5055479;28;20182;-69
2023/12/22 04:54:33;;;;;;;25.80;4.37;;;;;;;5.91;100.00;99744.41;5051978;28;20256;-69
2023/12/22 04:56:58;;;;;;;24.53;4.53;;;;;;;6.03;100.00;99768.69;5052693;28;20657;-69
2023/12/22 04:59:24;;;;;;;28.60;4.80;;;;;;;5.82;100.00;99713.66;5047511;28;20605;-69
2023/12/22 05:01:49;;;;;;;22.70;3.60;;;;;;;5.60;100.00;99672.97;5044627;28;20234;-69
2023/12/22 05:04:15;;;;;;;23.30;4.60;;;;;;;5.78;100.00;99683.09;5049192;28;20226;-69
2023/12/22 05:06:41;;;;;;;37.93;5.43;;;;;;;5.34;100.00;99642.53;5048847;28;20208;-69
2023/12/22 05:09:06;;;;;;;24.87;4.60;;;;;;;5.71;100.00;99716.84;5045566;28;20184;-69
2023/12/22 05:11:31;;;;;;;24.43;4.90;;;;;;;6.19;100.00;99765.72;5043866;28;20192;-69
2023/12/22 05:13:57;;;;;;;23.87;5.40;;;;;;;6.21;100.00;99758.31;5048412;28;20234;-69
2023/12/22 05:16:22;;;;;;;28.37;5.00;;;;;;;6.05;100.00;99738.19;5045346;28;20293;-69
2023/12/22 05:18:48;;;;;;;24.70;4.63;;;;;;;6.20;100.00;99734.56;5045718;28;20656;-69
2023/12/22 05:21:16;;;;;;;20.50;3.50;;;;;;;6.01;100.00;99682.84;5052294;28;20234;-69
2023/12/22 05:23:42;;;;;;;25.10;3.90;;;;;;;6.05;100.00;99684.13;5047896;28;20259;-69
2023/12/22 05:26:08;;;;;;;24.93;4.10;;;;;;;6.22;100.00;99717.38;5047404;28;20464;-69
2023/12/22 05:28:33;;;;;;;29.40;4.33;;;;;;;6.18;100.00;99721.44;5045669;28;20298;-69
2023/12/22 05:30:59;;;;;;;20.03;4.17;;;;;;;6.16;100.00;99736.78;5041592;28;20427;-69
2023/12/22 05:33:24;;;;;;;27.43;4.93;;;;;;;6.21;100.00;99723.72;5044100;28;20237;-69
2023/12/22 05:35:49;;;;;;;20.53;4.13;;;;;;;6.29;100.00;99712.91;5046494;28;20570;-69
2023/12/22 05:38:15;;;;;;;23.20;4.20;;;;;;;6.27;100.00;99722.91;5051038;28;20174;-69
2023/12/22 05:40:40;;;;;;;25.83;5.47;;;;;;;6.06;100.00;99715.84;5051895;28;20182;-69
2023/12/22 05:43:06;;;;;;;28.60;4.80;;;;;;;6.30;100.00;99775.78;5046743;28;20267;-69
2023/12/22 05:45:31;;;;;;;28.50;4.50;;;;;;;6.20;100.00;99764.69;5041285;28;20603;-69
2023/12/22 05:47:57;;;;;;;23.83;4.90;;;;;;;6.21;100.00;99811.59;5041899;28;20196;-69
2023/12/22 05:50:22;;;;;;;39.43;6.20;;;;;;;5.78;100.00;99752.28;5044456;28;20188;-69
2023/12/22 05:52:47;;;;;;;27.20;4.87;;;;;;;6.37;100.00;99810.47;5045358;28;20675;-69
2023/12/22 05:55:13;;;;;;;19.87;5.17;;;;;;;6.42;100.00;99821.34;5054529;28;20190;-69
2023/12/22 05:57:38;;;;;;;26.63;4.90;;;;;;;5.32;100.00;99676.47;5043625;28;20554;-69
2023/12/22 06:00:07;;;;;;;22.80;5.00;;;;;;;6.37;100.00;99802.47;5046369;28;20676;-69
2023/12/22 06:02:33;;;;;;;28.83;5.10;;;;;;;6.38;100.00;99808.63;5050051;28;20186;-69
2023/12/22 06:04:58;;;;;;;27.90;4.60;;;;;;;6.40;100.00;99799.41;5063473;28;20791;-69
2023/12/22 06:07:24;;;;;;;25.70;5.37;;;;;;;6.46;100.00;99827.94;5046139;28;20825;-69
2023/12/22 06:09:49;;;;;;;15.30;4.37;;;;;;;6.43;100.00;99801.69;5050625;28;20183;-69
2023/12/22 06:12:14;;;;;;;24.37;5.03;;;;;;;6.34;100.00;99794.88;5048955;28;20183;-69
2023/12/22 06:14:40;;;;;;;29.77;4.60;;;;;;;6.23;100.00;99798.09;5047641;28;20192;-69
2023/12/22 06:17:06;;;;;;;25.03;5.47;;;;;;;6.21;100.00;99776.16;5054763;28;20200;-69
2023/12/22 06:19:32;;;;;;;36.90;5.40;;;;;;;6.57;100.00;99837.22;5048083;28;20522;-69
2023/12/22 06:21:57;;;;;;;29.73;5.53;;;;;;;6.06;100.00;99776.28;5039348;28;20181;-69
2023/12/22 06:24:23;;;;;;;28.57;5.17;;;;;;;6.15;100.00;99780.41;5037743;28;20280;-69
2023/12/22 06:26:49;;;;;;;27.37;5.93;;;;;;;6.55;100.00;99849.91;5043485;28;20219;-69
2023/12/22 06:29:15;;;;;;;25.13;4.67;;;;;;;6.28;100.00;99798.34;5046971;28;20430;-69
2023/12/22 06:31:41;;;;;;;29.67;5.63;;;;;;;6.62;100.00;99864.06;5053700;28;20199;-69
2023/12/22 06:34:06;;;;;;;26.13;5.40;;;;;;;6.55;100.00;99831.25;5047015;28;20453;-69
2023/12/22 06:36:31;;;;;;;24.07;5.40;;;;;;;6.08;100.00;99764.41;5050790;28;20202;-69
2023/12/22 06:38:57;;;;;;;29.23;5.00;;;;;;;5.91;100.00;99743.59;5046747;28;20179;-69
2023/12/22 06:41:27;;;;;;;24.87;4.40;;;;;;;6.54;100.00;99853.59;5039894;28;20550;-69
2023/12/22 06:43:53;;;;;;;25.40;4.43;;;;;;;6.45;100.00;99844.94;5056600;28;20512;-69
2023/12/22 06:46:19;;;;;;;35.67;6.00;;;;;;;6.52;100.00;99866.28;5041670;28;20496;-69
2023/12/22 06:48:45;;;;;;;19.40;5.00;;;;;;;6.55;100.00;99855.22;5050434;28;20766;-68
2023/12/22 06:51:21;;;;;;;25.83;3.83;;;;;;;6.49;100.00;99850.69;5050679;28;20426;-69
2023/12/22 06:53:50;;;;;;;17.30;3.80;;;;;;;6.51;100.00;99875.31;5050705;28;20449;-69
2023/12/22 06:56:24;;;;;;;25.97;5.30;;;;;;;6.48;100.00;99889.84;5045495;28;20433;-69
2023/12/22 06:58:51;;;;;;;21.97;3.90;;;;;;;6.05;100.00;99772.78;5052348;28;20427;-69
2023/12/22 07:01:20;;;;;;;18.67;3.47;;;;;;;6.47;100.00;99845.53;5047086;28;20440;-69
2023/12/22 07:03:47;;;;;;;20.60;4.17;;;;;;;6.43;100.00;99819.50;5050989;28;20934;-69
2023/12/22 07:06:13;;;;;;;25.73;4.73;;;;;;;6.42;100.00;99808.03;5042342;28;20454;-69
2023/12/22 07:08:39;;;;;;;18.97;4.10;;;;;;;6.43;100.00;99830.97;5044457;28;20434;-69
2023/12/22 07:11:04;;;;;;;17.27;4.60;;;;;;;6.33;100.00;99842.00;5046665;28;20741;-69
2023/12/22 07:13:30;;;;;;;22.97;5.00;;;;;;;6.21;100.00;99845.38;5047974;28;20192;-68
2023/12/22 07:15:55;;;;;;;28.83;4.27;;;;;;;5.96;100.00;99800.59;5051426;28;20298;-69
2023/12/22 07:18:21;;;;;;;19.70;4.43;;;;;;;6.12;100.00;99828.72;5052684;28;20181;-69
2023/12/22 07:20:46;;;;;;;22.57;4.77;;;;;;;6.22;100.00;99869.16;5048653;28;20176;-69
2023/12/22 07:23:11;;;;;;;17.93;3.67;;;;;;;6.25;100.00;99843.97;5047391;28;20323;-69
2023/12/22 07:25:40;;;;;;;33.07;4.50;;;;;;;6.40;100.00;99863.34;5040480;28;20184;-69
2023/12/22 07:28:06;;;;;;;25.80;6.07;;;;;;;6.32;100.00;99890.94;5046151;28;20269;-69
2023/12/22 07:30:31;;;;;;;15.30;2.80;;;;;;;5.65;100.00;99791.09;5049572;28;20923;-69
2023/12/22 07:32:57;;;;;;;21.67;3.50;;;;;;;5.95;100.00;99852.16;5046417;28;20853;-69
2023/12/22 07:35:22;;;;;;;16.27;3.10;;;;;;;6.07;100.00;99900.38;5042913;28;20209;-69
2023/12/22 07:37:48;;;;;;;17.40;2.80;;;;;;;6.09;100.00;99893.03;5049073;28;20211;-69
2023/12/22 07:40:13;;;;;;;16.63;3.23;;;;;;;6.05;100.00;99902.41;5048336;28;20179;-69
2023/12/22 07:42:39;;;;;;;17.43;3.20;;;;;;;6.13;100.00;99925.41;5045655;28;20184;-69
2023/12/22 07:45:05;;;;;;;17.80;4.00;;;;;;;6.11;100.00;99913.13;5046457;28;20245;-69
2023/12/22 07:47:32;;;;;;;19.67;2.90;;;;;;;5.97;100.00;99897.22;5045259;28;20233;-69
2023/12/22 07:49:58;;;;;;;25.90;4.23;;;;;;;6.08;100.00;99918.81;5051352;28;20434;-69
2023/12/22 07:52:23;;;;;;;19.33;3.00;;;;;;;6.14;100.00;99945.72;5050786;28;20440;-69
2023/12/22 07:54:48;;;;;;;20.50;3.80;;;;;;;5.58;100.00;99882.50;5044459;28;21159;-69
2023/12/22 07:57:14;;;;;;;17.40;3.03;;;;;;;5.72;100.00;99923.34;5046905;28;20199;-69
2023/12/22 07:59:39;;;;;;;20.10;3.33;;;;;;;5.95;100.00;99982.59;5044737;28;20184;-69
2023/12/22 08:02:05;;;;;;;14.03;4.30;;;;;;;5.98;100.00;99974.22;5064809;28;20183;-69
2023/12/22 08:04:30;;;;;;;21.27;3.80;;;;;;;5.93;100.00;100005.03;5050995;28;20190;-69
2023/12/22 08:06:56;;;;;;;26.00;4.43;;;;;;;5.87;100.00;99980.84;5047557;28;20215;-69
2023/12/22 08:09:22;;;;;;;17.90;3.80;;;;;;;5.95;100.00;100003.88;5047738;28;20558;-69
2023/12/22 08:11:52;;;;;;;17.03;3.47;;;;;;;5.76;100.00;99978.69;5046883;28;20192;-69
2023/12/22 08:14:18;;;;;;;21.90;3.70;;;;;;;6.00;100.00;100009.47;5042640;28;20475;-69
2023/12/22 08:16:44;;;;;;;22.80;3.57;;;;;;;6.19;100.00;100017.81;5042821;28;20876;-69
2023/12/22 08:19:09;;;;;;;20.92;4.35;;;;;;;6.11;100.00;100003.63;5045567;28;20484;-69
2023/12/22 08:21:35;;;;;;;31.57;4.30;;;;;;;6.10;100.00;99985.19;5046277;28;20175;-69
2023/12/22 08:24:00;;;;;;;22.80;4.00;;;;;;;6.33;100.00;100023.13;5048325;28;20267;-69
2023/12/22 08:26:26;;;;;;;15.60;3.30;;;;;;;6.37;100.00;100012.91;5041725;28;20207;-69
2023/12/22 08:28:51;;;;;;;26.83;4.50;;;;;;;6.31;100.00;100003.00;5041186;28;20279;-69
2023/12/22 08:31:17;;;;;;;22.93;3.90;;;;;;;5.97;100.00;99977.09;5049631;28;20176;-69
2023/12/22 08:33:45;;;;;;;18.20;3.90;;;;;;;6.24;100.00;100060.69;5055469;28;20615;-69
2023/12/22 08:36:10;;;;;;;22.23;3.77;;;;;;;6.09;100.00;100061.56;5051833;28;20196;-69
2023/12/22 08:38:40;;;;;;;18.77;4.13;;;;;;;5.98;100.00;100072.72;5050892;28;20435;-69
2023/12/22 08:41:07;;;;;;;18.23;2.87;;;;;;;6.00;100.00;100078.69;5050239;28;20317;-69
2023/12/22 08:43:32;;;;;;;21.00;3.27;;;;;;;6.09;100.00;100093.53;5048570;28;20425;-69
2023/12/22 08:45:58;;;;;;;14.85;3.60;;;;;;;5.73;100.00;100048.25;5046317;28;20453;-69
2023/12/22 08:48:23;;;;;;;15.73;3.03;;;;;;;5.33;100.00;99988.41;5049082;28;20513;-69
2023/12/22 08:50:49;;;;;;;14.87;3.27;;;;;;;5.87;100.00;100083.81;5043820;28;20184;-69
2023/12/22 08:53:15;;;;;;;20.17;3.30;;;;;;;6.00;100.00;100136.44;5048728;28;20172;-69
2023/12/22 08:55:40;;;;;;;18.93;3.50;;;;;;;6.18;100.00;100120.88;5046820;28;20506;-69
2023/12/22 08:58:06;;;;;;;20.00;4.00;;;;;;;6.04;100.00;100097.75;5044752;28;20168;-69
2023/12/22 09:00:31;;;;;;;17.80;3.67;;;;;;;6.22;100.00;100119.50;5045968;28;20179;-69
2023/12/22 09:02:57;;;;;;;19.27;3.40;;;;;;;5.92;100.00;100069.94;5046727;28;20187;-69
2023/12/22 09:05:22;;;;;;;18.13;3.27;;;;;;;6.30;100.00;100113.22;5042647;28;20271;-69
2023/12/22 09:07:47;;;;;;;23.20;3.63;;;;;;;6.40;100.00;100120.91;5042163;28;20203;-69
2023/12/22 09:10:13;;;;;;;17.80;3.20;;;;;;;5.87;100.00;100039.41;5042352;28;20175;-69
2023/12/22 09:12:38;;;;;;;19.83;3.30;;;;;;;6.28;100.00;100088.63;5046030;28;20237;-69
2023/12/22 09:15:04;;;;;;;21.30;4.20;;;;;;;5.98;100.00;100042.59;5044800;28;20453;-69
2023/12/22 09:17:29;;;;;;;18.67;3.13;;;;;;;6.29;100.00;100095.59;5045325;28;20564;-69
2023/12/22 09:19:55;;;;;;;21.00;4.10;;;;;;;6.18;100.00;100067.59;5040532;28;20187;-69
2023/12/22 09:22:21;;;;;;;21.60;3.27;;;;;;;6.53;100.00;100113.03;5045323;28;20176;-69
2023/12/22 09:24:47;;;;;;;19.20;3.60;;;;;;;6.41;100.00;100104.72;5041102;28;20172;-69
2023/12/22 09:27:12;;;;;;;23.97;3.13;;;;;;;6.33;100.00;100087.03;5044234;28;20462;-69
2023/12/22 09:29:38;;;;;;;18.43;3.20;;;;;;;6.35;100.00;100092.16;5050590;28;20179;-69
2023/12/22 09:32:04;;;;;;;15.40;3.10;;;;;;;6.51;100.00;100120.41;5044535;28;20184;-69
2023/12/22 09:34:29;;;;;;;15.60;3.10;;;;;;;6.46;100.00;100117.47;5044951;28;20184;-69
2023/12/22 09:36:55;;;;;;;18.80;3.90;;;;;;;6.26;100.00;100095.97;5048843;28;20282;-69
2023/12/22 09:39:20;;;;;;;22.40;3.80;;;;;;;6.41;100.00;100120.69;5067360;28;20182;-69
2023/12/22 09:41:49;;;;;;;21.83;4.37;;;;;;;6.50;100.00;100138.22;5041828;28;20262;-69
2023/12/22 09:44:18;;;;;;;26.80;4.17;;;;;;;6.17;100.00;100113.91;5056983;28;20186;-69
2023/12/22 09:46:46;;;;;;;24.33;3.90;;;;;;;6.41;100.00;100154.50;5051452;28;20475;-69
2023/12/22 09:49:12;;;;;;;20.50;4.00;;;;;;;6.18;100.00;100122.69;5050394;28;20991;-69
2023/12/22 09:51:39;;;;;;;14.23;2.60;;;;;;;6.33;100.00;100166.94;5048894;28;20458;-69
2023/12/22 09:54:06;;;;;;;23.87;4.17;;;;;;;5.68;100.00;100079.91;5046514;28;20526;-69
2023/12/22 09:56:33;;;;;;;33.63;3.97;;;;;;;6.15;100.00;100157.69;5048471;28;20522;-69
2023/12/22 09:59:00;;;;;;;17.03;3.70;;;;;;;6.30;100.00;100177.94;5045620;28;20434;-69
2023/12/22 10:01:27;;;;;;;18.13;3.17;;;;;;;6.45;100.00;100185.06;5057173;28;20461;-69
2023/12/22 10:03:53;;;;;;;19.97;3.80;;;;;;;6.29;100.00;100170.97;5056744;28;20483;-69
2023/12/22 10:06:19;;;;;;;22.40;4.10;;;;;;;6.51;100.00;100214.47;5050846;28;20446;-69
2023/12/22 10:08:47;;;;;;;24.63;4.53;;;;;;;6.62;100.00;100228.31;5057162;28;20593;-69
2023/12/22 10:11:13;;;;;;;16.90;3.60;;;;;;;6.62;100.00;100222.97;5049702;28;20442;-69
2023/12/22 10:13:41;;;;;;;23.90;4.10;;;;;;;6.69;100.00;100234.56;5048632;28;20456;-69
2023/12/22 10:16:06;;;;;;;20.30;3.97;;;;;;;6.46;100.00;100198.22;5048404;28;20516;-69
2023/12/22 10:18:33;;;;;;;19.47;3.60;;;;;;;6.63;100.00;100214.81;5047294;28;20477;-69
2023/12/22 10:20:59;;;;;;;18.10;3.60;;;;;;;6.76;100.00;100214.13;5041925;28;20523;-70
2023/12/22 10:23:25;;;;;;;23.17;3.87;;;;;;;6.65;100.00;100203.94;5051513;28;20453;-69
2023/12/22 10:25:51;;;;;;;16.67;3.30;;;;;;;6.69;100.00;100219.38;5042948;28;20927;-69
2023/12/22 10:28:16;;;;;;;21.30;3.23;;;;;;;6.76;100.00;100225.59;5046539;28;20314;-69
2023/12/22 10:30:45;;;;;;;16.13;3.30;;;;;;;6.63;100.00;100176.69;5043592;28;20441;-69
2023/12/22 10:33:11;;;;;;;19.30;3.50;;;;;;;6.67;100.00;100197.44;5042933;28;20263;-69
2023/12/22 10:35:36;;;;;;;20.23;3.03;;;;;;;6.81;100.00;100211.72;5039305;28;20425;-69
2023/12/22 10:38:04;;;;;;;16.40;3.13;;;;;;;6.76;100.00;100219.44;5042655;28;20867;-69
2023/12/22 10:40:29;;;;;;;12.90;3.33;;;;;;;6.83;100.00;100187.53;5049243;28;20222;-69
2023/12/22 10:42:55;;;;;;;15.33;2.80;;;;;;;6.70;100.00;100178.38;5046923;28;20439;-69
2023/12/22 10:45:20;;;;;;;17.00;2.93;;;;;;;6.21;100.00;100082.38;5049302;28;20192;-69
2023/12/22 10:47:50;;;;;;;15.73;2.87;;;;;;;6.78;100.00;100164.94;5052289;28;20215;-69
2023/12/22 10:50:18;;;;;;;16.43;2.70;;;;;;;6.71;100.00;100137.41;5044825;28;20183;-69
2023/12/22 10:52:49;;;;;;;13.03;2.93;;;;;;;6.75;100.00;100159.16;5046153;28;20873;-69
2023/12/22 10:55:16;;;;;;;14.70;3.37;;;;;;;6.70;100.00;100134.94;5044615;28;20426;-69
2023/12/22 10:57:41;;;;;;;10.67;2.53;;;;;;;6.77;100.00;100141.97;5043967;28;20450;-69
2023/12/22 11:00:08;;;;;;;14.70;3.03;;;;;;;6.73;100.00;100138.03;5047123;28;20931;-69
2023/12/22 11:02:34;;;;;;;14.90;2.77;;;;;;;6.85;100.00;100141.00;5065357;28;20203;-69
2023/12/22 11:05:05;;;;;;;14.90;2.17;;;;;;;6.92;100.00;100144.56;5047187;28;20879;-69
2023/12/22 11:07:33;;;;;;;17.00;3.30;;;;;;;6.65;100.00;100098.19;5043887;28;20896;-69
2023/12/22 11:10:03;;;;;;;15.37;2.70;;;;;;;6.91;100.00;100123.41;5050604;28;21154;-69
2023/12/22 11:12:31;;;;;;;21.50;3.73;;;;;;;6.77;100.00;100103.84;5044065;28;20450;-69
2023/12/22 11:14:57;;;;;;;15.97;2.60;;;;;;;6.82;100.00;100103.25;5042612;28;20449;-69
2023/12/22 11:17:23;;;;;;;20.00;3.17;;;;;;;6.91;100.00;100136.75;5044492;28;20501;-69
2023/12/22 11:19:54;;;;;;;16.07;3.10;;;;;;;6.76;100.00;100107.50;5047341;28;20575;-69